Terminal Aerodrome Forecast
Issued by NWS

Home | Current Version | Previous Version | Text Only | Print | Product List | Glossary On
Versions: 1 2 3 4 5 6 7 8 9 10 11 12 13 14 15
704
FTUS46 KMTR 201037 AAA
TAFSJC
TAF AMD
KSJC 201037Z 2011/2106 13020G32KT 6SM -RA BKN030 OVC040
     FM201200 14028G38KT 4SM +RA OVC015
     FM201600 15020G30KT 6SM -RA OVC015
     FM202000 22018G25KT P6SM -SHRA BKN020 OVC050 PROB30 2020/2101 1
      1/2SM -TSRA BKN050CB
     FM210100 28015G20KT P6SM -SHRA BKN020 OVC050=

USA.gov is the U.S. government's official web portal to all federal, state and local government web resources and services.